Xoxocotlan International Airport
MMOX : now visible

Airfield :











YOU CAN JOIN US ON...

 
LOGIN :

Register | Disclaimer

   EN    FR    IT 

 









Legend :    VFR   Marginal VFR   IFR   Intensive IFR   Very Intensive IFR
Visi :
Ceiling :
>= 8 km
>= 3000ft
5 to 8 km
1000 to 3000 ft
1500m to 5 km
500 to 1000 ft
800 to 1500m
200 to 500 ft
< 800m
< 200 ft
Symbols :   Thunderstorms  Fog  Heavy snow  Heavy precipitations  Wind > 20 kt






- Airport Elevation : 4989 ft
- IATA code : OAX


MMOX - Xoxocotlan International

CURRENT METAR :
  • 131551Z 19005KT 10SM SCT030TCU SCT120 BKN210 21/14 A3022 RMK 8/236

EXPIRED METARs :
  • 131440Z 16003KT 10SM SCT025TCU BKN120 OVC210 20/15 A3022 RMK SLP132 57013 926 8/236 BINOVC
  • 131343Z 03004KT 7SM SCT025TCU SCT120 OVC210 18/17 A3020 RMK 8/226

TAF TAF MMOX
Valid from the 13 at 06:00 until the 14 at 06:00 UTC


130512Z 1306/1406 13005KT P6SM SCT020 OVC120
FM131800 14010KT P6SM SCT025 BKN090 BKN250
FM140000 13008KT 6SM -RA BKN025 OVC090
TEMPO 1402/1406 4SM TSRA BKN020CB
MMFR FIR / North America



MET'MAP, your aeronautical weather chart ! - Copyright ORBIFLY December 2007 - Disclaimer

ORBIFLY MET'MAP TEAM :

Programming & Development : Alexandra Zaïnal
Concept & original design : Baudouin d'Aumeries
Assistance for programming : Marc-Olivier Méhu
Technical & hardware support : Manuel Goepfert

Contact : metmap@orbifly.com




SOURCES & CREDITS :

   NOAA       Earth
Advisory